Alto Springs, Texas
Current Conditions -  °F | °C
As of 12:15 PM on Friday 28 Nov 2014 (Local Time) from KLXY Reporting Station
Broken Clouds Broken Clouds  
Wind Chill: 65°   Ceiling: 2700
Heat Index: 65°   Visibility: 10mi
Dew Point: 52°   Wind: 18mph
Humidity: 62%   Direction: 190°S
Pressure: 30.21"   Gusts: 26mph
Location:  31.3327°N, 96.6013°W
Report Text: KLXY 281815Z AUTO 19016G23KT 10SM BKN027 19/11 A3021 RMK AO2 T01860113
Loading
Personal Weather Stations






























Interactive Weather Map New forecast layout! Learn more

10-Day Weather Forecast

Advertisements
Track Severe Weather on mobile